Mariano I. Loza, Argentina
Current Conditions -  °F | °C
As of 12:00 PM on Thursday 30 Oct 2014 (Local Time) from SARL Reporting Station
Overcast Overcast  
Wind Chill: 23°   Ceiling: 10000
Heat Index: 23°   Visibility: 6mi
Dew Point: 19°   Wind: 29mph
Humidity: 78%   Direction: 50°NE
Pressure: 29.77"   Gusts: NA
Location:  29.37°S, 58.2°W
Report Text: SARL 301500Z 05025KT 9999 SCT020 OVC10023/19 Q1008
Loading
Personal Weather Stations






























Interactive Weather Map
Tropical Storm Tracking
New forecast layout! Learn more

10-Day Weather Forecast

Advertisements
Track Severe Weather on mobile